sensor_id;sensor_type;location;lat;lon;timestamp;P1;durP1;ratioP1;P2;durP2;ratioP2
82754;SDS011;72493;42.014;21.438;2023-08-30T00:02:06;15.75;;;10.13;;
82754;SDS011;72493;42.014;21.438;2023-08-30T00:04:34;13.82;;;9.10;;
82754;SDS011;72493;42.014;21.438;2023-08-30T00:07:00;14.05;;;9.27;;
82754;SDS011;72493;42.014;21.438;2023-08-30T00:09:26;14.63;;;9.20;;
82754;SDS011;72493;42.014;21.438;2023-08-30T00:11:52;14.25;;;9.32;;
82754;SDS011;72493;42.014;21.438;2023-08-30T00:14:18;16.75;;;10.73;;
82754;SDS011;72493;42.014;21.438;2023-08-30T00:16:44;16.70;;;9.43;;
82754;SDS011;72493;42.014;21.438;2023-08-30T00:19:10;15.32;;;10.02;;
82754;SDS011;72493;42.014;21.438;2023-08-30T00:21:37;12.93;;;9.40;;
82754;SDS011;72493;42.014;21.438;2023-08-30T00:24:03;12.90;;;9.50;;
82754;SDS011;72493;42.014;21.438;2023-08-30T00:26:29;14.98;;;9.60;;
82754;SDS011;72493;42.014;21.438;2023-08-30T00:28:55;14.98;;;9.38;;
82754;SDS011;72493;42.014;21.438;2023-08-30T00:31:21;14.70;;;9.80;;
82754;SDS011;72493;42.014;21.438;2023-08-30T00:33:48;14.43;;;9.90;;
82754;SDS011;72493;42.014;21.438;2023-08-30T00:36:14;15.93;;;10.00;;
82754;SDS011;72493;42.014;21.438;2023-08-30T00:38:43;13.50;;;9.13;;
82754;SDS011;72493;42.014;21.438;2023-08-30T00:41:09;13.32;;;9.48;;
82754;SDS011;72493;42.014;21.438;2023-08-30T00:43:35;15.93;;;9.80;;
82754;SDS011;72493;42.014;21.438;2023-08-30T00:46:01;19.00;;;10.50;;
82754;SDS011;72493;42.014;21.438;2023-08-30T00:48:28;19.60;;;10.48;;
82754;SDS011;72493;42.014;21.438;2023-08-30T00:50:54;15.68;;;9.90;;
82754;SDS011;72493;42.014;21.438;2023-08-30T00:53:20;20.00;;;10.60;;
82754;SDS011;72493;42.014;21.438;2023-08-30T00:55:46;16.45;;;10.38;;
82754;SDS011;72493;42.014;21.438;2023-08-30T00:58:12;14.65;;;10.50;;
82754;SDS011;72493;42.014;21.438;2023-08-30T01:00:39;15.57;;;10.48;;
82754;SDS011;72493;42.014;21.438;2023-08-30T01:03:06;16.52;;;10.60;;
82754;SDS011;72493;42.014;21.438;2023-08-30T01:05:35;19.50;;;11.48;;
82754;SDS011;72493;42.014;21.438;2023-08-30T01:08:01;15.07;;;10.07;;
82754;SDS011;72493;42.014;21.438;2023-08-30T01:10:31;14.35;;;9.25;;
82754;SDS011;72493;42.014;21.438;2023-08-30T01:13:05;16.85;;;10.27;;
82754;SDS011;72493;42.014;21.438;2023-08-30T01:15:32;15.95;;;10.65;;
82754;SDS011;72493;42.014;21.438;2023-08-30T01:17:59;17.05;;;9.95;;
82754;SDS011;72493;42.014;21.438;2023-08-30T01:20:25;18.63;;;11.10;;
82754;SDS011;72493;42.014;21.438;2023-08-30T01:25:27;17.48;;;10.70;;
82754;SDS011;72493;42.014;21.438;2023-08-30T01:28:00;14.98;;;10.65;;
82754;SDS011;72493;42.014;21.438;2023-08-30T01:30:27;18.95;;;11.15;;
82754;SDS011;72493;42.014;21.438;2023-08-30T01:32:54;17.33;;;11.25;;
82754;SDS011;72493;42.014;21.438;2023-08-30T01:35:21;15.48;;;10.63;;
82754;SDS011;72493;42.014;21.438;2023-08-30T01:37:48;17.58;;;11.02;;
82754;SDS011;72493;42.014;21.438;2023-08-30T01:40:15;18.73;;;11.00;;
82754;SDS011;72493;42.014;21.438;2023-08-30T01:42:42;16.60;;;10.82;;
82754;SDS011;72493;42.014;21.438;2023-08-30T01:45:10;14.43;;;10.90;;
82754;SDS011;72493;42.014;21.438;2023-08-30T01:47:38;16.67;;;10.55;;
82754;SDS011;72493;42.014;21.438;2023-08-30T01:50:05;15.77;;;8.90;;
82754;SDS011;72493;42.014;21.438;2023-08-30T01:52:32;16.08;;;9.77;;
82754;SDS011;72493;42.014;21.438;2023-08-30T01:54:58;14.93;;;9.60;;
82754;SDS011;72493;42.014;21.438;2023-08-30T01:57:25;18.65;;;11.00;;
82754;SDS011;72493;42.014;21.438;2023-08-30T01:59:52;17.48;;;10.80;;
82754;SDS011;72493;42.014;21.438;2023-08-30T02:02:18;16.60;;;10.00;;
82754;SDS011;72493;42.014;21.438;2023-08-30T02:04:44;15.10;;;10.88;;
82754;SDS011;72493;42.014;21.438;2023-08-30T02:07:17;14.07;;;9.80;;
82754;SDS011;72493;42.014;21.438;2023-08-30T02:09:49;17.42;;;11.68;;
82754;SDS011;72493;42.014;21.438;2023-08-30T02:12:17;17.05;;;11.32;;
82754;SDS011;72493;42.014;21.438;2023-08-30T02:14:46;17.42;;;11.23;;
82754;SDS011;72493;42.014;21.438;2023-08-30T02:17:13;16.63;;;10.57;;
82754;SDS011;72493;42.014;21.438;2023-08-30T02:19:40;15.88;;;10.52;;
82754;SDS011;72493;42.014;21.438;2023-08-30T02:22:06;16.80;;;11.63;;
82754;SDS011;72493;42.014;21.438;2023-08-30T02:24:32;15.60;;;10.63;;
82754;SDS011;72493;42.014;21.438;2023-08-30T02:26:58;14.68;;;9.80;;
82754;SDS011;72493;42.014;21.438;2023-08-30T02:29:25;17.23;;;10.43;;
82754;SDS011;72493;42.014;21.438;2023-08-30T02:31:51;17.83;;;11.20;;
82754;SDS011;72493;42.014;21.438;2023-08-30T02:34:17;17.17;;;10.10;;
82754;SDS011;72493;42.014;21.438;2023-08-30T02:36:43;17.33;;;10.60;;
82754;SDS011;72493;42.014;21.438;2023-08-30T02:39:10;16.77;;;10.48;;
82754;SDS011;72493;42.014;21.438;2023-08-30T02:41:36;16.88;;;10.32;;
82754;SDS011;72493;42.014;21.438;2023-08-30T02:44:04;15.02;;;9.95;;
82754;SDS011;72493;42.014;21.438;2023-08-30T02:46:30;15.52;;;10.68;;
82754;SDS011;72493;42.014;21.438;2023-08-30T02:48:56;16.25;;;10.10;;
82754;SDS011;72493;42.014;21.438;2023-08-30T02:51:22;14.65;;;9.50;;
82754;SDS011;72493;42.014;21.438;2023-08-30T02:53:48;18.75;;;10.32;;
82754;SDS011;72493;42.014;21.438;2023-08-30T02:56:14;15.07;;;9.65;;
82754;SDS011;72493;42.014;21.438;2023-08-30T02:58:41;18.27;;;10.15;;
82754;SDS011;72493;42.014;21.438;2023-08-30T03:01:07;13.95;;;9.43;;
82754;SDS011;72493;42.014;21.438;2023-08-30T03:03:33;17.00;;;9.88;;
82754;SDS011;72493;42.014;21.438;2023-08-30T03:06:00;16.38;;;10.13;;
82754;SDS011;72493;42.014;21.438;2023-08-30T03:08:28;18.70;;;9.73;;
82754;SDS011;72493;42.014;21.438;2023-08-30T03:10:54;17.33;;;9.88;;
82754;SDS011;72493;42.014;21.438;2023-08-30T03:15:46;17.67;;;10.20;;
82754;SDS011;72493;42.014;21.438;2023-08-30T03:18:12;18.08;;;10.30;;
82754;SDS011;72493;42.014;21.438;2023-08-30T03:20:38;18.08;;;10.80;;
82754;SDS011;72493;42.014;21.438;2023-08-30T03:23:04;17.85;;;9.57;;
82754;SDS011;72493;42.014;21.438;2023-08-30T03:25:30;14.60;;;9.57;;
82754;SDS011;72493;42.014;21.438;2023-08-30T03:27:56;18.10;;;9.18;;
82754;SDS011;72493;42.014;21.438;2023-08-30T03:30:22;16.27;;;8.07;;
82754;SDS011;72493;42.014;21.438;2023-08-30T03:32:48;14.02;;;8.13;;
82754;SDS011;72493;42.014;21.438;2023-08-30T03:35:15;17.10;;;9.55;;
82754;SDS011;72493;42.014;21.438;2023-08-30T03:37:42;14.85;;;8.57;;
82754;SDS011;72493;42.014;21.438;2023-08-30T03:40:08;12.63;;;8.10;;
82754;SDS011;72493;42.014;21.438;2023-08-30T03:42:34;19.58;;;7.53;;
82754;SDS011;72493;42.014;21.438;2023-08-30T03:45:01;17.95;;;8.57;;
82754;SDS011;72493;42.014;21.438;2023-08-30T03:47:27;14.40;;;7.45;;
82754;SDS011;72493;42.014;21.438;2023-08-30T03:49:53;15.60;;;8.20;;
82754;SDS011;72493;42.014;21.438;2023-08-30T03:52:19;17.77;;;8.38;;
82754;SDS011;72493;42.014;21.438;2023-08-30T03:54:45;14.32;;;7.18;;
82754;SDS011;72493;42.014;21.438;2023-08-30T03:57:11;16.90;;;8.68;;
82754;SDS011;72493;42.014;21.438;2023-08-30T03:59:37;15.98;;;8.45;;
82754;SDS011;72493;42.014;21.438;2023-08-30T04:02:04;14.65;;;7.80;;
82754;SDS011;72493;42.014;21.438;2023-08-30T04:04:30;12.35;;;7.82;;
82754;SDS011;72493;42.014;21.438;2023-08-30T04:06:56;16.02;;;8.43;;
82754;SDS011;72493;42.014;21.438;2023-08-30T04:09:22;20.33;;;9.63;;
82754;SDS011;72493;42.014;21.438;2023-08-30T04:11:48;17.95;;;8.73;;
82754;SDS011;72493;42.014;21.438;2023-08-30T04:14:14;17.85;;;8.88;;
82754;SDS011;72493;42.014;21.438;2023-08-30T04:16:40;22.20;;;8.52;;
82754;SDS011;72493;42.014;21.438;2023-08-30T04:19:06;20.67;;;10.10;;
82754;SDS011;72493;42.014;21.438;2023-08-30T04:21:33;13.98;;;8.93;;
82754;SDS011;72493;42.014;21.438;2023-08-30T04:23:59;16.77;;;9.18;;
82754;SDS011;72493;42.014;21.438;2023-08-30T04:26:25;19.48;;;9.32;;
82754;SDS011;72493;42.014;21.438;2023-08-30T04:28:51;18.15;;;9.18;;
82754;SDS011;72493;42.014;21.438;2023-08-30T04:31:17;18.77;;;8.90;;
82754;SDS011;72493;42.014;21.438;2023-08-30T04:33:43;20.77;;;9.25;;
82754;SDS011;72493;42.014;21.438;2023-08-30T04:36:09;17.92;;;8.95;;
82754;SDS011;72493;42.014;21.438;2023-08-30T04:38:35;21.73;;;10.00;;
82754;SDS011;72493;42.014;21.438;2023-08-30T04:41:01;24.77;;;9.45;;
82754;SDS011;72493;42.014;21.438;2023-08-30T04:43:28;32.70;;;10.48;;
82754;SDS011;72493;42.014;21.438;2023-08-30T04:45:54;22.02;;;9.70;;
82754;SDS011;72493;42.014;21.438;2023-08-30T04:48:20;17.55;;;10.85;;
82754;SDS011;72493;42.014;21.438;2023-08-30T04:50:46;19.38;;;10.10;;
82754;SDS011;72493;42.014;21.438;2023-08-30T04:55:38;17.50;;;8.90;;
82754;SDS011;72493;42.014;21.438;2023-08-30T04:58:04;17.92;;;9.07;;
82754;SDS011;72493;42.014;21.438;2023-08-30T05:00:30;12.80;;;7.38;;
82754;SDS011;72493;42.014;21.438;2023-08-30T05:02:56;22.15;;;9.18;;
82754;SDS011;72493;42.014;21.438;2023-08-30T05:07:48;18.55;;;9.38;;
82754;SDS011;72493;42.014;21.438;2023-08-30T05:10:15;17.52;;;7.47;;
82754;SDS011;72493;42.014;21.438;2023-08-30T05:12:41;14.65;;;6.90;;
82754;SDS011;72493;42.014;21.438;2023-08-30T05:15:09;15.23;;;7.03;;
82754;SDS011;72493;42.014;21.438;2023-08-30T05:17:35;16.73;;;7.82;;
82754;SDS011;72493;42.014;21.438;2023-08-30T05:20:01;21.08;;;8.27;;
82754;SDS011;72493;42.014;21.438;2023-08-30T05:22:28;14.63;;;6.50;;
82754;SDS011;72493;42.014;21.438;2023-08-30T05:24:54;22.65;;;15.18;;
82754;SDS011;72493;42.014;21.438;2023-08-30T05:27:20;20.30;;;8.43;;
82754;SDS011;72493;42.014;21.438;2023-08-30T05:29:46;14.63;;;7.38;;
82754;SDS011;72493;42.014;21.438;2023-08-30T05:32:12;15.13;;;6.85;;
82754;SDS011;72493;42.014;21.438;2023-08-30T05:34:38;13.50;;;7.47;;
82754;SDS011;72493;42.014;21.438;2023-08-30T05:37:05;15.25;;;8.10;;
82754;SDS011;72493;42.014;21.438;2023-08-30T05:39:31;23.40;;;9.10;;
82754;SDS011;72493;42.014;21.438;2023-08-30T05:41:57;13.77;;;7.60;;
82754;SDS011;72493;42.014;21.438;2023-08-30T05:44:23;19.75;;;7.22;;
82754;SDS011;72493;42.014;21.438;2023-08-30T05:46:50;18.25;;;7.68;;
82754;SDS011;72493;42.014;21.438;2023-08-30T05:49:16;17.65;;;8.27;;
82754;SDS011;72493;42.014;21.438;2023-08-30T05:51:42;13.00;;;8.40;;
82754;SDS011;72493;42.014;21.438;2023-08-30T05:54:08;16.90;;;7.72;;
82754;SDS011;72493;42.014;21.438;2023-08-30T05:56:34;16.60;;;7.78;;
82754;SDS011;72493;42.014;21.438;2023-08-30T05:59:00;20.45;;;9.52;;
82754;SDS011;72493;42.014;21.438;2023-08-30T06:01:26;19.88;;;9.23;;
82754;SDS011;72493;42.014;21.438;2023-08-30T06:03:53;15.23;;;9.57;;
82754;SDS011;72493;42.014;21.438;2023-08-30T06:06:19;21.95;;;8.88;;
82754;SDS011;72493;42.014;21.438;2023-08-30T06:08:45;16.00;;;9.88;;
82754;SDS011;72493;42.014;21.438;2023-08-30T06:11:12;16.65;;;9.43;;
82754;SDS011;72493;42.014;21.438;2023-08-30T06:13:40;17.08;;;8.68;;
82754;SDS011;72493;42.014;21.438;2023-08-30T06:16:06;14.95;;;9.02;;
82754;SDS011;72493;42.014;21.438;2023-08-30T06:18:32;15.70;;;9.88;;
82754;SDS011;72493;42.014;21.438;2023-08-30T06:20:58;18.73;;;9.27;;
82754;SDS011;72493;42.014;21.438;2023-08-30T06:23:25;18.95;;;9.40;;
82754;SDS011;72493;42.014;21.438;2023-08-30T06:25:54;15.00;;;9.35;;
82754;SDS011;72493;42.014;21.438;2023-08-30T06:28:20;22.58;;;10.25;;
82754;SDS011;72493;42.014;21.438;2023-08-30T06:30:47;16.13;;;9.07;;
82754;SDS011;72493;42.014;21.438;2023-08-30T06:33:13;16.10;;;10.88;;
82754;SDS011;72493;42.014;21.438;2023-08-30T06:35:39;22.10;;;11.20;;
82754;SDS011;72493;42.014;21.438;2023-08-30T06:38:06;18.90;;;9.70;;
82754;SDS011;72493;42.014;21.438;2023-08-30T06:40:32;18.50;;;9.65;;
82754;SDS011;72493;42.014;21.438;2023-08-30T06:42:58;16.13;;;9.73;;
82754;SDS011;72493;42.014;21.438;2023-08-30T06:45:25;19.77;;;9.65;;
82754;SDS011;72493;42.014;21.438;2023-08-30T06:47:51;18.83;;;9.45;;
82754;SDS011;72493;42.014;21.438;2023-08-30T06:50:17;18.83;;;8.73;;
82754;SDS011;72493;42.014;21.438;2023-08-30T06:52:43;20.13;;;8.32;;
82754;SDS011;72493;42.014;21.438;2023-08-30T06:55:10;18.05;;;7.95;;
82754;SDS011;72493;42.014;21.438;2023-08-30T06:57:36;24.98;;;9.65;;
82754;SDS011;72493;42.014;21.438;2023-08-30T07:00:02;18.23;;;9.00;;
82754;SDS011;72493;42.014;21.438;2023-08-30T07:02:36;22.23;;;7.95;;
82754;SDS011;72493;42.014;21.438;2023-08-30T07:05:03;15.23;;;7.72;;
82754;SDS011;72493;42.014;21.438;2023-08-30T07:07:30;17.17;;;8.38;;
82754;SDS011;72493;42.014;21.438;2023-08-30T07:09:56;19.83;;;9.60;;
82754;SDS011;72493;42.014;21.438;2023-08-30T07:12:22;22.63;;;9.98;;
82754;SDS011;72493;42.014;21.438;2023-08-30T07:14:49;17.00;;;8.82;;
82754;SDS011;72493;42.014;21.438;2023-08-30T07:17:15;17.60;;;9.82;;
82754;SDS011;72493;42.014;21.438;2023-08-30T07:19:41;22.38;;;10.98;;
82754;SDS011;72493;42.014;21.438;2023-08-30T07:22:07;17.48;;;10.57;;
82754;SDS011;72493;42.014;21.438;2023-08-30T07:24:33;16.90;;;10.45;;
82754;SDS011;72493;42.014;21.438;2023-08-30T07:26:59;20.10;;;11.10;;
82754;SDS011;72493;42.014;21.438;2023-08-30T07:29:25;15.57;;;10.38;;
82754;SDS011;72493;42.014;21.438;2023-08-30T07:31:52;20.20;;;10.02;;
82754;SDS011;72493;42.014;21.438;2023-08-30T07:34:19;19.38;;;10.25;;
82754;SDS011;72493;42.014;21.438;2023-08-30T07:36:45;17.55;;;11.13;;
82754;SDS011;72493;42.014;21.438;2023-08-30T07:39:12;19.42;;;10.63;;
82754;SDS011;72493;42.014;21.438;2023-08-30T07:41:38;17.58;;;9.65;;
82754;SDS011;72493;42.014;21.438;2023-08-30T07:44:04;17.25;;;9.82;;
82754;SDS011;72493;42.014;21.438;2023-08-30T07:46:30;13.88;;;9.77;;
82754;SDS011;72493;42.014;21.438;2023-08-30T07:48:56;18.88;;;10.98;;
82754;SDS011;72493;42.014;21.438;2023-08-30T07:51:23;16.50;;;9.27;;
82754;SDS011;72493;42.014;21.438;2023-08-30T07:53:49;19.95;;;10.38;;
82754;SDS011;72493;42.014;21.438;2023-08-30T07:56:15;17.35;;;10.20;;
82754;SDS011;72493;42.014;21.438;2023-08-30T07:58:41;23.60;;;10.77;;
82754;SDS011;72493;42.014;21.438;2023-08-30T08:01:07;20.90;;;9.63;;
82754;SDS011;72493;42.014;21.438;2023-08-30T08:03:34;15.38;;;9.40;;
82754;SDS011;72493;42.014;21.438;2023-08-30T08:09:04;17.30;;;9.07;;
82754;SDS011;72493;42.014;21.438;2023-08-30T08:11:32;17.70;;;9.15;;
82754;SDS011;72493;42.014;21.438;2023-08-30T08:13:59;17.88;;;10.18;;
82754;SDS011;72493;42.014;21.438;2023-08-30T08:16:25;18.67;;;9.40;;
82754;SDS011;72493;42.014;21.438;2023-08-30T08:18:52;18.30;;;7.68;;
82754;SDS011;72493;42.014;21.438;2023-08-30T08:21:18;17.88;;;7.82;;
82754;SDS011;72493;42.014;21.438;2023-08-30T08:23:44;18.55;;;8.48;;
82754;SDS011;72493;42.014;21.438;2023-08-30T08:26:14;15.98;;;7.18;;
82754;SDS011;72493;42.014;21.438;2023-08-30T08:28:40;17.35;;;6.32;;
82754;SDS011;72493;42.014;21.438;2023-08-30T08:31:07;14.07;;;6.78;;
82754;SDS011;72493;42.014;21.438;2023-08-30T08:33:34;12.43;;;6.47;;
82754;SDS011;72493;42.014;21.438;2023-08-30T08:36:00;11.75;;;6.28;;
82754;SDS011;72493;42.014;21.438;2023-08-30T08:38:27;14.60;;;7.70;;
82754;SDS011;72493;42.014;21.438;2023-08-30T08:40:53;13.32;;;7.38;;
82754;SDS011;72493;42.014;21.438;2023-08-30T08:43:27;16.67;;;7.25;;
82754;SDS011;72493;42.014;21.438;2023-08-30T08:45:54;14.35;;;8.00;;
82754;SDS011;72493;42.014;21.438;2023-08-30T08:48:22;14.77;;;7.25;;
82754;SDS011;72493;42.014;21.438;2023-08-30T08:50:49;12.70;;;7.28;;
82754;SDS011;72493;42.014;21.438;2023-08-30T08:53:15;15.65;;;7.80;;
82754;SDS011;72493;42.014;21.438;2023-08-30T08:55:43;13.00;;;7.47;;
82754;SDS011;72493;42.014;21.438;2023-08-30T08:58:10;16.15;;;7.47;;
82754;SDS011;72493;42.014;21.438;2023-08-30T09:00:37;15.90;;;6.70;;
82754;SDS011;72493;42.014;21.438;2023-08-30T09:03:04;12.48;;;7.03;;
82754;SDS011;72493;42.014;21.438;2023-08-30T09:05:31;12.38;;;6.72;;
82754;SDS011;72493;42.014;21.438;2023-08-30T09:07:58;13.00;;;6.55;;
82754;SDS011;72493;42.014;21.438;2023-08-30T09:10:25;14.63;;;8.20;;
82754;SDS011;72493;42.014;21.438;2023-08-30T09:12:51;11.13;;;6.32;;
82754;SDS011;72493;42.014;21.438;2023-08-30T09:15:17;17.88;;;11.95;;
82754;SDS011;72493;42.014;21.438;2023-08-30T09:17:43;13.52;;;6.15;;
82754;SDS011;72493;42.014;21.438;2023-08-30T09:20:12;10.80;;;6.70;;
82754;SDS011;72493;42.014;21.438;2023-08-30T09:25:06;12.27;;;6.13;;
82754;SDS011;72493;42.014;21.438;2023-08-30T09:27:32;14.77;;;5.93;;
82754;SDS011;72493;42.014;21.438;2023-08-30T09:29:59;13.38;;;5.72;;
82754;SDS011;72493;42.014;21.438;2023-08-30T09:32:25;9.95;;;5.38;;
82754;SDS011;72493;42.014;21.438;2023-08-30T09:34:51;13.57;;;6.22;;
82754;SDS011;72493;42.014;21.438;2023-08-30T09:37:35;14.05;;;6.07;;
82754;SDS011;72493;42.014;21.438;2023-08-30T09:40:02;11.18;;;6.22;;
82754;SDS011;72493;42.014;21.438;2023-08-30T09:42:29;13.73;;;5.53;;
82754;SDS011;72493;42.014;21.438;2023-08-30T09:44:55;10.23;;;5.75;;
82754;SDS011;72493;42.014;21.438;2023-08-30T09:47:27;10.93;;;4.45;;
82754;SDS011;72493;42.014;21.438;2023-08-30T09:49:54;10.25;;;4.10;;
82754;SDS011;72493;42.014;21.438;2023-08-30T09:52:21;9.75;;;3.90;;
82754;SDS011;72493;42.014;21.438;2023-08-30T09:54:49;9.23;;;4.07;;
82754;SDS011;72493;42.014;21.438;2023-08-30T09:57:17;11.30;;;4.95;;
82754;SDS011;72493;42.014;21.438;2023-08-30T09:59:44;11.35;;;4.53;;
82754;SDS011;72493;42.014;21.438;2023-08-30T10:02:11;12.43;;;6.90;;
82754;SDS011;72493;42.014;21.438;2023-08-30T10:04:38;8.07;;;4.10;;
82754;SDS011;72493;42.014;21.438;2023-08-30T10:07:05;9.10;;;5.40;;
82754;SDS011;72493;42.014;21.438;2023-08-30T10:09:32;9.35;;;4.63;;
82754;SDS011;72493;42.014;21.438;2023-08-30T10:11:59;8.95;;;4.15;;
82754;SDS011;72493;42.014;21.438;2023-08-30T10:14:26;7.65;;;4.05;;
82754;SDS011;72493;42.014;21.438;2023-08-30T10:16:56;10.63;;;4.82;;
82754;SDS011;72493;42.014;21.438;2023-08-30T10:19:26;12.45;;;4.47;;
82754;SDS011;72493;42.014;21.438;2023-08-30T10:21:54;9.90;;;4.30;;
82754;SDS011;72493;42.014;21.438;2023-08-30T10:24:23;12.57;;;5.95;;
82754;SDS011;72493;42.014;21.438;2023-08-30T10:26:50;12.90;;;4.97;;
82754;SDS011;72493;42.014;21.438;2023-08-30T10:29:16;9.88;;;4.00;;
82754;SDS011;72493;42.014;21.438;2023-08-30T10:31:43;10.80;;;5.40;;
82754;SDS011;72493;42.014;21.438;2023-08-30T10:34:16;9.52;;;4.57;;
82754;SDS011;72493;42.014;21.438;2023-08-30T10:36:43;13.15;;;4.70;;
82754;SDS011;72493;42.014;21.438;2023-08-30T10:39:12;12.10;;;4.57;;
82754;SDS011;72493;42.014;21.438;2023-08-30T10:41:53;12.15;;;6.15;;
82754;SDS011;72493;42.014;21.438;2023-08-30T10:44:21;19.65;;;5.57;;
82754;SDS011;72493;42.014;21.438;2023-08-30T10:46:51;20.42;;;5.57;;
82754;SDS011;72493;42.014;21.438;2023-08-30T10:49:19;10.93;;;4.30;;
82754;SDS011;72493;42.014;21.438;2023-08-30T10:51:45;10.48;;;4.53;;
82754;SDS011;72493;42.014;21.438;2023-08-30T10:54:13;8.85;;;4.00;;
82754;SDS011;72493;42.014;21.438;2023-08-30T10:56:56;14.05;;;5.32;;
82754;SDS011;72493;42.014;21.438;2023-08-30T10:59:26;13.48;;;4.70;;
82754;SDS011;72493;42.014;21.438;2023-08-30T11:01:54;12.73;;;4.43;;
82754;SDS011;72493;42.014;21.438;2023-08-30T11:04:21;14.95;;;4.72;;
82754;SDS011;72493;42.014;21.438;2023-08-30T11:06:48;12.35;;;4.80;;
82754;SDS011;72493;42.014;21.438;2023-08-30T11:09:22;10.77;;;4.20;;
82754;SDS011;72493;42.014;21.438;2023-08-30T11:11:49;13.82;;;4.90;;
82754;SDS011;72493;42.014;21.438;2023-08-30T11:14:16;14.25;;;4.40;;
82754;SDS011;72493;42.014;21.438;2023-08-30T11:16:42;13.77;;;4.90;;
82754;SDS011;72493;42.014;21.438;2023-08-30T11:19:09;11.90;;;4.75;;
82754;SDS011;72493;42.014;21.438;2023-08-30T11:21:39;11.82;;;5.00;;
82754;SDS011;72493;42.014;21.438;2023-08-30T11:24:05;13.10;;;5.07;;
82754;SDS011;72493;42.014;21.438;2023-08-30T11:26:32;14.73;;;5.43;;
82754;SDS011;72493;42.014;21.438;2023-08-30T11:29:07;13.68;;;4.80;;
82754;SDS011;72493;42.014;21.438;2023-08-30T11:31:34;14.40;;;4.55;;
82754;SDS011;72493;42.014;21.438;2023-08-30T11:34:00;16.98;;;5.25;;
82754;SDS011;72493;42.014;21.438;2023-08-30T11:36:28;10.43;;;4.43;;
82754;SDS011;72493;42.014;21.438;2023-08-30T11:38:54;11.80;;;4.95;;
82754;SDS011;72493;42.014;21.438;2023-08-30T11:41:21;12.00;;;4.22;;
82754;SDS011;72493;42.014;21.438;2023-08-30T11:43:47;9.25;;;5.00;;
82754;SDS011;72493;42.014;21.438;2023-08-30T11:46:14;10.60;;;4.75;;
82754;SDS011;72493;42.014;21.438;2023-08-30T11:48:40;9.82;;;4.25;;
82754;SDS011;72493;42.014;21.438;2023-08-30T11:51:07;8.48;;;3.78;;
82754;SDS011;72493;42.014;21.438;2023-08-30T11:53:34;12.02;;;4.18;;
82754;SDS011;72493;42.014;21.438;2023-08-30T11:56:00;12.50;;;4.03;;
82754;SDS011;72493;42.014;21.438;2023-08-30T11:58:27;9.52;;;3.75;;
82754;SDS011;72493;42.014;21.438;2023-08-30T12:00:54;11.05;;;3.97;;
82754;SDS011;72493;42.014;21.438;2023-08-30T12:03:20;11.32;;;3.42;;
82754;SDS011;72493;42.014;21.438;2023-08-30T12:05:47;9.05;;;3.15;;
82754;SDS011;72493;42.014;21.438;2023-08-30T12:08:20;8.90;;;3.63;;
82754;SDS011;72493;42.014;21.438;2023-08-30T12:10:46;9.90;;;3.22;;
82754;SDS011;72493;42.014;21.438;2023-08-30T12:13:23;6.72;;;2.75;;
82754;SDS011;72493;42.014;21.438;2023-08-30T12:15:50;9.20;;;3.30;;
82754;SDS011;72493;42.014;21.438;2023-08-30T12:18:16;7.85;;;3.28;;
82754;SDS011;72493;42.014;21.438;2023-08-30T12:20:51;6.43;;;2.97;;
82754;SDS011;72493;42.014;21.438;2023-08-30T12:23:25;6.95;;;2.90;;
82754;SDS011;72493;42.014;21.438;2023-08-30T12:26:02;7.47;;;3.38;;
82754;SDS011;72493;42.014;21.438;2023-08-30T12:28:34;8.30;;;3.00;;
82754;SDS011;72493;42.014;21.438;2023-08-30T12:31:00;6.13;;;2.90;;
82754;SDS011;72493;42.014;21.438;2023-08-30T12:33:27;6.90;;;3.20;;
82754;SDS011;72493;42.014;21.438;2023-08-30T12:35:54;7.90;;;3.42;;
82754;SDS011;72493;42.014;21.438;2023-08-30T12:38:20;8.93;;;3.00;;
82754;SDS011;72493;42.014;21.438;2023-08-30T12:40:47;9.40;;;3.30;;
82754;SDS011;72493;42.014;21.438;2023-08-30T12:43:14;8.57;;;3.20;;
82754;SDS011;72493;42.014;21.438;2023-08-30T12:45:41;6.75;;;3.15;;
82754;SDS011;72493;42.014;21.438;2023-08-30T12:48:08;8.40;;;3.15;;
82754;SDS011;72493;42.014;21.438;2023-08-30T12:50:35;6.68;;;2.40;;
82754;SDS011;72493;42.014;21.438;2023-08-30T12:53:02;6.78;;;3.28;;
82754;SDS011;72493;42.014;21.438;2023-08-30T12:55:28;8.80;;;3.10;;
82754;SDS011;72493;42.014;21.438;2023-08-30T12:57:55;9.95;;;3.40;;
82754;SDS011;72493;42.014;21.438;2023-08-30T13:00:21;8.68;;;3.20;;
82754;SDS011;72493;42.014;21.438;2023-08-30T13:02:48;7.35;;;2.70;;
82754;SDS011;72493;42.014;21.438;2023-08-30T13:05:14;12.13;;;4.95;;
82754;SDS011;72493;42.014;21.438;2023-08-30T13:07:40;9.43;;;3.17;;
82754;SDS011;72493;42.014;21.438;2023-08-30T13:10:07;7.45;;;2.60;;
82754;SDS011;72493;42.014;21.438;2023-08-30T13:12:38;6.97;;;2.53;;
82754;SDS011;72493;42.014;21.438;2023-08-30T13:17:31;9.77;;;3.17;;
82754;SDS011;72493;42.014;21.438;2023-08-30T13:19:57;7.72;;;2.72;;
82754;SDS011;72493;42.014;21.438;2023-08-30T13:22:24;7.32;;;2.63;;
82754;SDS011;72493;42.014;21.438;2023-08-30T13:24:51;11.13;;;3.67;;
82754;SDS011;72493;42.014;21.438;2023-08-30T13:27:17;9.00;;;4.53;;
82754;SDS011;72493;42.014;21.438;2023-08-30T13:29:44;8.13;;;3.03;;
82754;SDS011;72493;42.014;21.438;2023-08-30T13:32:10;6.55;;;2.53;;
82754;SDS011;72493;42.014;21.438;2023-08-30T13:34:36;8.88;;;2.58;;
82754;SDS011;72493;42.014;21.438;2023-08-30T13:37:03;7.18;;;2.95;;
82754;SDS011;72493;42.014;21.438;2023-08-30T13:39:29;9.45;;;2.88;;
82754;SDS011;72493;42.014;21.438;2023-08-30T13:41:56;9.50;;;2.88;;
82754;SDS011;72493;42.014;21.438;2023-08-30T13:44:22;8.05;;;3.08;;
82754;SDS011;72493;42.014;21.438;2023-08-30T13:46:49;6.82;;;3.50;;
82754;SDS011;72493;42.014;21.438;2023-08-30T13:49:16;12.05;;;3.25;;
82754;SDS011;72493;42.014;21.438;2023-08-30T13:51:45;6.65;;;2.53;;
82754;SDS011;72493;42.014;21.438;2023-08-30T13:54:11;7.88;;;2.42;;
82754;SDS011;72493;42.014;21.438;2023-08-30T13:56:37;6.78;;;2.58;;
82754;SDS011;72493;42.014;21.438;2023-08-30T13:59:04;9.10;;;3.38;;
82754;SDS011;72493;42.014;21.438;2023-08-30T14:01:33;7.03;;;2.63;;
82754;SDS011;72493;42.014;21.438;2023-08-30T14:04:02;5.55;;;2.40;;
82754;SDS011;72493;42.014;21.438;2023-08-30T14:06:31;6.60;;;2.45;;
82754;SDS011;72493;42.014;21.438;2023-08-30T14:08:58;9.38;;;2.85;;
82754;SDS011;72493;42.014;21.438;2023-08-30T14:11:24;6.70;;;2.92;;
82754;SDS011;72493;42.014;21.438;2023-08-30T14:13:50;7.82;;;2.83;;
82754;SDS011;72493;42.014;21.438;2023-08-30T14:16:16;8.60;;;2.90;;
82754;SDS011;72493;42.014;21.438;2023-08-30T14:18:43;9.57;;;3.00;;
82754;SDS011;72493;42.014;21.438;2023-08-30T14:21:09;10.45;;;3.47;;
82754;SDS011;72493;42.014;21.438;2023-08-30T14:23:35;11.32;;;3.50;;
82754;SDS011;72493;42.014;21.438;2023-08-30T14:26:03;8.85;;;3.33;;
82754;SDS011;72493;42.014;21.438;2023-08-30T14:30:59;9.45;;;2.53;;
82754;SDS011;72493;42.014;21.438;2023-08-30T14:33:26;7.25;;;3.17;;
82754;SDS011;72493;42.014;21.438;2023-08-30T14:35:52;9.27;;;3.17;;
82754;SDS011;72493;42.014;21.438;2023-08-30T14:38:18;10.75;;;3.60;;
82754;SDS011;72493;42.014;21.438;2023-08-30T14:40:44;8.57;;;4.13;;